Time;durP1;ratioP1;P1;durP2;ratioP2;P2;SDS_P1;SDS_P2;PMS_P1;PMS_P2;Temp;Humidity;BMP_temperature;BMP_pressure;BME280_temperature;BME280_humidity;BME280_pressure;Samples;Min_cycle;Max_cycle;Signal;HPM_P1;HPM_P2
2023/06/25 00:01:30;;;;;;;14.68;12.52;;;;;;;;;;5037940;28;20104;-76
2023/06/25 00:03:56;;;;;;;15.98;12.35;;;;;;;;;;5036530;28;20052;-75
2023/06/25 00:06:22;;;;;;;16.48;12.82;;;;;;;;;;5038427;28;20043;-75
2023/06/25 00:08:49;;;;;;;16.88;12.30;;;;;;;;;;5041856;28;20106;-75
2023/06/25 00:11:15;;;;;;;15.00;12.35;;;;;;;;;;5040209;28;20073;-75
2023/06/25 00:13:41;;;;;;;17.90;12.50;;;;;;;;;;5037498;28;20045;-76
2023/06/25 00:16:07;;;;;;;14.00;12.40;;;;;;;;;;5036122;28;20073;-75
2023/06/25 00:18:34;;;;;;;14.93;12.73;;;;;;;;;;5028541;28;20049;-76
2023/06/25 00:21:05;;;;;;;17.45;13.75;;;;;;;;;;5035751;28;20037;-75
2023/06/25 00:23:31;;;;;;;16.00;12.70;;;;;;;;;;5035776;28;20049;-75
2023/06/25 00:25:57;;;;;;;17.90;13.45;;;;;;;;;;5035425;28;20528;-75
2023/06/25 00:28:23;;;;;;;17.33;13.43;;;;;;;;;;5034703;28;20124;-75
2023/06/25 00:30:49;;;;;;;17.65;13.93;;;;;;;;;;5036580;28;20422;-76
2023/06/25 00:33:15;;;;;;;16.45;13.60;;;;;;;;;;5036634;28;20045;-75
2023/06/25 00:35:50;;;;;;;17.98;13.50;;;;;;;;;;5034880;28;20049;-76
2023/06/25 00:38:19;;;;;;;18.30;14.10;;;;;;;;;;5029172;28;20048;-73
2023/06/25 00:40:45;;;;;;;16.38;13.82;;;;;;;;;;5036072;28;20463;-75
2023/06/25 00:43:15;;;;;;;17.90;14.55;;;;;;;;;;5036165;28;20084;-75
2023/06/25 00:45:41;;;;;;;18.98;14.90;;;;;;;;;;5034560;28;20404;-74
2023/06/25 00:48:07;;;;;;;15.20;13.60;;;;;;;;;;5032472;28;20099;-75
2023/06/25 00:50:33;;;;;;;17.25;14.15;;;;;;;;;;5034333;28;20057;-75
2023/06/25 00:53:01;;;;;;;17.25;13.40;;;;;;;;;;5032812;28;20399;-75
2023/06/25 00:55:28;;;;;;;17.95;14.68;;;;;;;;;;5036231;28;20052;-75
2023/06/25 00:57:55;;;;;;;17.67;15.20;;;;;;;;;;5034991;28;20053;-76
2023/06/25 01:00:24;;;;;;;19.17;15.10;;;;;;;;;;5036033;28;20042;-76
2023/06/25 01:02:53;;;;;;;18.40;15.20;;;;;;;;;;5033504;28;20057;-76
2023/06/25 01:05:26;;;;;;;19.20;14.73;;;;;;;;;;5036037;28;20053;-75
2023/06/25 01:07:53;;;;;;;16.13;14.07;;;;;;;;;;5034663;28;20041;-76
2023/06/25 01:10:19;;;;;;;17.63;13.88;;;;;;;;;;5035038;28;20071;-75
2023/06/25 01:12:46;;;;;;;17.17;13.95;;;;;;;;;;5036320;28;20038;-76
2023/06/25 01:15:12;;;;;;;16.60;13.88;;;;;;;;;;5034652;28;20458;-75
2023/06/25 01:17:41;;;;;;;15.15;13.45;;;;;;;;;;5033793;28;20108;-75
2023/06/25 01:20:11;;;;;;;15.38;13.32;;;;;;;;;;5035367;28;20120;-76
2023/06/25 01:22:38;;;;;;;16.13;13.57;;;;;;;;;;5035230;28;20091;-75
2023/06/25 01:25:05;;;;;;;15.70;13.43;;;;;;;;;;5034754;28;20050;-76
2023/06/25 01:27:33;;;;;;;19.35;13.50;;;;;;;;;;5033306;28;20048;-75
2023/06/25 01:29:59;;;;;;;17.67;13.77;;;;;;;;;;5004214;28;20132;-75
2023/06/25 01:32:26;;;;;;;16.60;13.73;;;;;;;;;;5040340;28;20053;-74
2023/06/25 01:34:52;;;;;;;16.30;14.05;;;;;;;;;;5020022;28;20050;-75
2023/06/25 01:37:18;;;;;;;19.05;14.35;;;;;;;;;;5033512;28;20042;-75
2023/06/25 01:39:51;;;;;;;16.35;13.65;;;;;;;;;;5032840;28;20568;-76
2023/06/25 01:42:17;;;;;;;16.40;13.90;;;;;;;;;;5032347;28;20140;-75
2023/06/25 01:44:43;;;;;;;17.92;14.40;;;;;;;;;;5031095;28;20040;-76
2023/06/25 01:47:09;;;;;;;15.90;13.57;;;;;;;;;;5030810;28;20041;-75
2023/06/25 01:49:36;;;;;;;16.10;13.52;;;;;;;;;;5034282;28;20060;-75
2023/06/25 01:52:02;;;;;;;17.38;14.20;;;;;;;;;;5033193;28;20038;-76
2023/06/25 01:54:29;;;;;;;17.20;14.18;;;;;;;;;;5021696;28;20043;-75
2023/06/25 01:56:55;;;;;;;17.17;14.25;;;;;;;;;;5035373;28;20042;-75
2023/06/25 01:59:21;;;;;;;23.13;15.30;;;;;;;;;;5049380;28;20048;-75
2023/06/25 02:01:48;;;;;;;19.00;14.70;;;;;;;;;;5044558;28;20081;-76
2023/06/25 02:04:14;;;;;;;18.70;14.95;;;;;;;;;;5036875;28;20056;-75
2023/06/25 02:06:40;;;;;;;19.08;15.05;;;;;;;;;;5035327;28;20046;-76
2023/06/25 02:09:07;;;;;;;20.58;15.25;;;;;;;;;;5034627;28;20124;-76
2023/06/25 02:11:33;;;;;;;17.08;15.25;;;;;;;;;;5035310;28;20045;-76
2023/06/25 02:13:59;;;;;;;19.50;16.98;;;;;;;;;;5033460;28;20128;-75
2023/06/25 02:16:25;;;;;;;18.65;15.82;;;;;;;;;;5033664;28;20080;-76
2023/06/25 02:18:53;;;;;;;18.42;15.30;;;;;;;;;;5033703;28;20077;-75
2023/06/25 02:21:19;;;;;;;20.65;15.95;;;;;;;;;;5034157;28;20098;-76
2023/06/25 02:23:45;;;;;;;19.52;15.98;;;;;;;;;;5035433;28;20037;-75
2023/06/25 02:26:11;;;;;;;20.20;16.25;;;;;;;;;;5033712;28;20045;-76
2023/06/25 02:28:37;;;;;;;17.80;14.85;;;;;;;;;;5037926;28;20042;-76
2023/06/25 02:31:03;;;;;;;19.17;15.85;;;;;;;;;;5037652;28;20061;-76
2023/06/25 02:33:29;;;;;;;18.05;15.73;;;;;;;;;;5035574;28;20053;-76
2023/06/25 02:35:56;;;;;;;17.90;16.00;;;;;;;;;;5036099;28;20079;-75
2023/06/25 02:38:22;;;;;;;20.52;16.70;;;;;;;;;;5037606;28;20423;-75
2023/06/25 02:40:48;;;;;;;20.20;16.35;;;;;;;;;;5037107;28;20045;-76
2023/06/25 02:43:14;;;;;;;20.50;15.48;;;;;;;;;;5036634;28;20053;-76
2023/06/25 02:45:40;;;;;;;21.17;17.33;;;;;;;;;;5036955;28;20059;-75
2023/06/25 02:48:06;;;;;;;21.80;17.65;;;;;;;;;;5035462;28;20073;-75
2023/06/25 02:50:32;;;;;;;20.48;17.05;;;;;;;;;;5033789;28;20124;-76
2023/06/25 02:52:59;;;;;;;21.15;17.25;;;;;;;;;;5035369;28;20099;-76
2023/06/25 02:55:25;;;;;;;20.23;16.85;;;;;;;;;;5034244;28;20048;-75
2023/06/25 02:57:51;;;;;;;22.95;17.10;;;;;;;;;;5035534;28;20080;-77
2023/06/25 03:00:17;;;;;;;21.38;16.88;;;;;;;;;;5034196;28;20045;-76
2023/06/25 03:02:43;;;;;;;23.50;17.80;;;;;;;;;;5033477;28;20057;-76
2023/06/25 03:05:09;;;;;;;19.52;17.35;;;;;;;;;;5031938;28;20418;-75
2023/06/25 03:07:35;;;;;;;19.67;16.90;;;;;;;;;;5030166;28;20155;-75
2023/06/25 03:10:01;;;;;;;22.83;16.85;;;;;;;;;;5032499;28;20091;-75
2023/06/25 03:12:27;;;;;;;21.05;17.52;;;;;;;;;;5035334;28;20042;-75
2023/06/25 03:14:53;;;;;;;22.02;17.77;;;;;;;;;;5033572;28;20053;-75
2023/06/25 03:17:19;;;;;;;21.00;18.08;;;;;;;;;;5034804;28;20515;-75
2023/06/25 03:19:45;;;;;;;23.00;18.67;;;;;;;;;;5033643;28;20052;-75
2023/06/25 03:22:11;;;;;;;21.55;18.75;;;;;;;;;;5039040;28;20041;-76
2023/06/25 03:24:37;;;;;;;22.95;19.77;;;;;;;;;;5027422;28;20077;-75
2023/06/25 03:27:04;;;;;;;22.83;18.85;;;;;;;;;;5027753;28;20042;-76
2023/06/25 03:29:30;;;;;;;22.80;18.42;;;;;;;;;;5026821;28;20057;-77
2023/06/25 03:31:56;;;;;;;21.63;18.38;;;;;;;;;;5021150;28;20049;-75
2023/06/25 03:34:22;;;;;;;25.60;19.27;;;;;;;;;;5038639;28;20045;-76
2023/06/25 03:36:48;;;;;;;22.27;19.33;;;;;;;;;;5033858;28;20121;-75
2023/06/25 03:39:14;;;;;;;22.13;19.13;;;;;;;;;;5037074;28;20064;-75
2023/06/25 03:41:40;;;;;;;25.75;19.52;;;;;;;;;;5038085;28;20132;-75
2023/06/25 03:44:06;;;;;;;24.75;19.02;;;;;;;;;;5012318;28;20045;-75
2023/06/25 03:46:32;;;;;;;25.92;19.45;;;;;;;;;;5052505;28;20391;-75
2023/06/25 03:48:58;;;;;;;25.85;18.00;;;;;;;;;;5041132;28;20057;-75
2023/06/25 03:51:24;;;;;;;26.88;16.75;;;;;;;;;;5039851;28;20045;-75
2023/06/25 03:53:50;;;;;;;21.60;16.60;;;;;;;;;;5040040;28;20396;-75
2023/06/25 03:56:16;;;;;;;22.92;15.73;;;;;;;;;;5034766;28;20507;-76
2023/06/25 03:58:44;;;;;;;23.30;16.83;;;;;;;;;;5026894;28;20183;-75
2023/06/25 04:01:10;;;;;;;20.10;15.93;;;;;;;;;;5037484;28;20132;-75
2023/06/25 04:03:36;;;;;;;25.70;16.67;;;;;;;;;;5040316;28;20064;-74
2023/06/25 04:06:02;;;;;;;21.90;17.35;;;;;;;;;;5040074;28;20056;-75
2023/06/25 04:08:28;;;;;;;25.63;17.02;;;;;;;;;;5038015;28;20357;-75
2023/06/25 04:10:54;;;;;;;21.65;17.58;;;;;;;;;;5038320;28;20050;-76
2023/06/25 04:13:20;;;;;;;24.20;17.40;;;;;;;;;;5038947;28;20042;-76
2023/06/25 04:15:46;;;;;;;25.30;17.58;;;;;;;;;;5035370;28;20096;-76
2023/06/25 04:18:12;;;;;;;24.85;17.20;;;;;;;;;;5038004;28;20038;-76
2023/06/25 04:20:38;;;;;;;22.75;18.02;;;;;;;;;;5037223;28;20091;-76
2023/06/25 04:23:04;;;;;;;20.05;17.15;;;;;;;;;;5028679;28;20042;-75
2023/06/25 04:25:31;;;;;;;22.65;18.35;;;;;;;;;;5035376;28;20113;-75
2023/06/25 04:27:57;;;;;;;23.13;17.75;;;;;;;;;;5034719;28;20049;-75
2023/06/25 04:30:23;;;;;;;21.40;17.75;;;;;;;;;;5032986;28;20060;-75
2023/06/25 04:32:49;;;;;;;22.20;18.67;;;;;;;;;;5034645;28;20460;-75
2023/06/25 04:35:16;;;;;;;22.50;19.10;;;;;;;;;;5037590;28;20072;-76
2023/06/25 04:37:42;;;;;;;26.52;18.83;;;;;;;;;;5037777;28;20049;-76
2023/06/25 04:40:09;;;;;;;23.30;18.80;;;;;;;;;;5035937;28;20128;-76
2023/06/25 04:42:35;;;;;;;22.15;18.45;;;;;;;;;;5036234;28;20395;-75
2023/06/25 04:45:01;;;;;;;23.17;18.20;;;;;;;;;;5036438;28;20460;-76
2023/06/25 04:47:27;;;;;;;25.05;18.30;;;;;;;;;;5031287;28;20042;-76
2023/06/25 04:49:53;;;;;;;24.17;18.80;;;;;;;;;;5039725;28;20038;-76
2023/06/25 04:52:19;;;;;;;22.55;18.17;;;;;;;;;;5030751;28;20538;-75
2023/06/25 04:54:46;;;;;;;24.98;18.45;;;;;;;;;;5032667;28;20480;-76
2023/06/25 04:57:12;;;;;;;24.10;19.73;;;;;;;;;;5036217;28;20041;-76
2023/06/25 04:59:38;;;;;;;24.50;19.85;;;;;;;;;;5037299;28;20045;-75
2023/06/25 05:02:05;;;;;;;25.73;20.00;;;;;;;;;;5038452;28;20062;-76
2023/06/25 05:04:31;;;;;;;21.23;18.45;;;;;;;;;;5036035;28;20081;-75
2023/06/25 05:06:57;;;;;;;24.50;18.42;;;;;;;;;;5031332;28;20120;-75
2023/06/25 05:09:24;;;;;;;21.70;18.25;;;;;;;;;;5037838;28;20463;-76
2023/06/25 05:11:50;;;;;;;20.98;18.25;;;;;;;;;;5036587;28;20421;-76
2023/06/25 05:14:16;;;;;;;22.35;18.45;;;;;;;;;;5029940;28;20058;-76
2023/06/25 05:16:42;;;;;;;22.58;17.92;;;;;;;;;;5035710;28;20459;-75
2023/06/25 05:19:08;;;;;;;22.42;18.67;;;;;;;;;;5037937;28;20120;-74
2023/06/25 05:21:34;;;;;;;21.95;18.00;;;;;;;;;;5025771;28;20096;-75
2023/06/25 05:24:01;;;;;;;23.42;19.25;;;;;;;;;;5032779;28;20053;-74
2023/06/25 05:26:28;;;;;;;20.02;17.90;;;;;;;;;;5033430;28;20514;-75
2023/06/25 05:28:54;;;;;;;22.90;18.40;;;;;;;;;;5034783;28;20041;-75
2023/06/25 05:31:20;;;;;;;21.17;17.15;;;;;;;;;;5035132;28;20128;-75
2023/06/25 05:33:47;;;;;;;20.83;17.33;;;;;;;;;;5015889;28;20044;-75
2023/06/25 05:36:13;;;;;;;18.20;16.30;;;;;;;;;;5029082;28;20049;-76
2023/06/25 05:38:39;;;;;;;18.00;15.60;;;;;;;;;;5035580;28;20038;-74
2023/06/25 05:41:05;;;;;;;18.45;15.95;;;;;;;;;;5029919;28;20041;-74
2023/06/25 05:43:31;;;;;;;17.65;15.40;;;;;;;;;;5030475;28;20034;-75
2023/06/25 05:45:57;;;;;;;17.25;15.48;;;;;;;;;;5028499;28;20074;-76
2023/06/25 05:48:23;;;;;;;17.58;15.57;;;;;;;;;;5035845;28;20076;-75
2023/06/25 05:50:49;;;;;;;18.67;15.30;;;;;;;;;;5036123;28;20048;-74
2023/06/25 05:53:15;;;;;;;17.00;15.15;;;;;;;;;;5035707;28;20045;-75
2023/06/25 05:55:42;;;;;;;17.58;15.73;;;;;;;;;;5035183;28;20049;-74
2023/06/25 05:58:08;;;;;;;16.75;14.98;;;;;;;;;;5028053;28;20055;-74
2023/06/25 06:00:34;;;;;;;20.05;15.18;;;;;;;;;;5035033;28;20085;-74
2023/06/25 06:03:00;;;;;;;18.85;14.80;;;;;;;;;;5033709;28;20099;-74
2023/06/25 06:05:26;;;;;;;16.95;15.15;;;;;;;;;;5030829;28;20053;-74
2023/06/25 06:07:52;;;;;;;17.85;15.65;;;;;;;;;;5036400;28;20105;-75
2023/06/25 06:10:19;;;;;;;17.05;15.20;;;;;;;;;;5035617;28;20132;-75
2023/06/25 06:12:45;;;;;;;18.13;14.50;;;;;;;;;;5032749;28;20057;-75
2023/06/25 06:15:11;;;;;;;17.20;14.70;;;;;;;;;;5031445;28;20041;-74
2023/06/25 06:17:37;;;;;;;16.13;14.43;;;;;;;;;;5034624;28;20060;-74
2023/06/25 06:20:03;;;;;;;17.10;15.30;;;;;;;;;;5034117;28;20121;-74
2023/06/25 06:22:30;;;;;;;17.00;15.30;;;;;;;;;;5031315;28;20512;-75
2023/06/25 06:24:56;;;;;;;16.73;15.13;;;;;;;;;;5026390;28;20042;-74
2023/06/25 06:27:22;;;;;;;16.85;15.13;;;;;;;;;;5032079;28;20041;-74
2023/06/25 06:29:48;;;;;;;16.27;14.48;;;;;;;;;;5032925;28;20526;-75
2023/06/25 06:32:14;;;;;;;15.18;13.68;;;;;;;;;;5032464;28;20041;-74
2023/06/25 06:34:41;;;;;;;16.33;14.73;;;;;;;;;;5030768;28;20053;-74
2023/06/25 06:37:07;;;;;;;15.38;13.77;;;;;;;;;;5032111;28;20049;-75
2023/06/25 06:39:34;;;;;;;16.00;14.15;;;;;;;;;;5039748;28;20080;-76
2023/06/25 06:42:00;;;;;;;15.45;13.63;;;;;;;;;;5047117;28;20033;-76
2023/06/25 06:44:26;;;;;;;15.65;14.05;;;;;;;;;;5032026;28;20045;-75
2023/06/25 06:46:52;;;;;;;16.42;14.73;;;;;;;;;;5035440;28;20037;-74
2023/06/25 06:49:19;;;;;;;15.55;13.95;;;;;;;;;;5032978;28;20049;-74
2023/06/25 06:51:45;;;;;;;15.15;13.55;;;;;;;;;;5036877;28;20368;-75
2023/06/25 06:54:11;;;;;;;15.50;13.90;;;;;;;;;;5029512;28;20049;-75
2023/06/25 06:56:38;;;;;;;14.73;12.88;;;;;;;;;;5035879;28;20081;-75
2023/06/25 06:59:05;;;;;;;13.85;12.38;;;;;;;;;;5006092;28;20067;-75
2023/06/25 07:01:34;;;;;;;14.55;13.00;;;;;;;;;;5038819;28;20099;-75
2023/06/25 07:04:00;;;;;;;14.38;12.68;;;;;;;;;;5039033;28;20045;-75
2023/06/25 07:06:26;;;;;;;14.55;12.93;;;;;;;;;;5041275;28;20058;-75
2023/06/25 07:08:52;;;;;;;14.50;12.60;;;;;;;;;;5064472;28;20048;-74
2023/06/25 07:11:18;;;;;;;15.48;13.98;;;;;;;;;;5047635;28;20049;-75
2023/06/25 07:13:45;;;;;;;13.60;12.20;;;;;;;;;;5047040;28;20053;-75
2023/06/25 07:16:11;;;;;;;13.45;12.10;;;;;;;;;;5047107;28;20109;-75
2023/06/25 07:18:37;;;;;;;14.35;12.38;;;;;;;;;;5044610;28;20092;-75
2023/06/25 07:21:05;;;;;;;13.75;12.27;;;;;;;;;;5040908;28;20099;-74
2023/06/25 07:23:31;;;;;;;13.93;12.20;;;;;;;;;;5040236;28;20041;-74
2023/06/25 07:25:57;;;;;;;14.40;13.00;;;;;;;;;;5041005;28;20399;-74
2023/06/25 07:28:23;;;;;;;13.70;12.30;;;;;;;;;;5040113;28;20049;-75
2023/06/25 07:30:49;;;;;;;16.08;14.57;;;;;;;;;;5042296;28;20101;-75
2023/06/25 07:33:15;;;;;;;15.32;13.82;;;;;;;;;;5041758;28;20064;-76
2023/06/25 07:35:42;;;;;;;15.07;13.57;;;;;;;;;;5026358;28;20053;-74
2023/06/25 07:38:08;;;;;;;14.45;12.95;;;;;;;;;;5042872;28;20068;-74
2023/06/25 07:40:34;;;;;;;13.48;12.20;;;;;;;;;;5038722;28;20046;-74
2023/06/25 07:43:00;;;;;;;14.77;12.52;;;;;;;;;;5053386;28;20033;-75
2023/06/25 07:45:26;;;;;;;14.00;12.60;;;;;;;;;;5050217;28;20098;-73
2023/06/25 07:47:52;;;;;;;14.20;12.75;;;;;;;;;;5044436;28;20496;-75
2023/06/25 07:50:18;;;;;;;14.43;12.07;;;;;;;;;;5043472;28;20053;-74
2023/06/25 07:52:44;;;;;;;12.75;11.45;;;;;;;;;;5042956;28;20038;-74
2023/06/25 07:55:10;;;;;;;14.90;13.52;;;;;;;;;;5040737;28;20052;-74
2023/06/25 07:57:36;;;;;;;14.45;12.88;;;;;;;;;;5042010;28;20395;-74
2023/06/25 08:00:03;;;;;;;15.63;13.93;;;;;;;;;;5040895;28;20041;-74
2023/06/25 08:02:29;;;;;;;15.10;13.60;;;;;;;;;;5031649;28;20104;-73
2023/06/25 08:04:56;;;;;;;15.13;13.65;;;;;;;;;;5033955;28;20049;-73
2023/06/25 08:07:22;;;;;;;14.65;12.60;;;;;;;;;;5040356;28;20042;-74
2023/06/25 08:09:48;;;;;;;16.08;14.38;;;;;;;;;;5040000;28;20200;-75
2023/06/25 08:12:14;;;;;;;15.15;13.70;;;;;;;;;;5021144;28;20060;-75
2023/06/25 08:14:40;;;;;;;15.15;13.75;;;;;;;;;;5020303;28;20050;-76
2023/06/25 08:17:07;;;;;;;14.88;12.27;;;;;;;;;;5036547;28;20120;-75
2023/06/25 08:19:33;;;;;;;15.52;12.88;;;;;;;;;;5036586;28;20050;-75
2023/06/25 08:21:59;;;;;;;12.65;11.35;;;;;;;;;;5037476;28;20081;-75
2023/06/25 08:24:25;;;;;;;12.93;11.52;;;;;;;;;;5034811;28;20033;-74
2023/06/25 08:26:52;;;;;;;13.57;12.18;;;;;;;;;;5032064;28;20041;-75
2023/06/25 08:29:18;;;;;;;12.90;11.45;;;;;;;;;;5038017;28;20042;-75
2023/06/25 08:31:44;;;;;;;13.68;12.15;;;;;;;;;;5036570;28;20045;-75
2023/06/25 08:34:10;;;;;;;15.90;12.50;;;;;;;;;;5038615;28;20140;-74
2023/06/25 08:36:36;;;;;;;14.82;13.43;;;;;;;;;;5020192;28;20057;-74
2023/06/25 08:39:03;;;;;;;15.20;12.90;;;;;;;;;;5037250;28;20042;-75
2023/06/25 08:41:29;;;;;;;15.25;12.25;;;;;;;;;;5038382;28;20063;-75
2023/06/25 08:43:55;;;;;;;13.50;12.05;;;;;;;;;;5037032;28;20507;-75
2023/06/25 08:46:25;;;;;;;14.20;12.38;;;;;;;;;;5036332;28;20124;-74
2023/06/25 08:48:54;;;;;;;13.35;11.88;;;;;;;;;;5037336;28;20059;-74
2023/06/25 08:51:24;;;;;;;13.98;12.05;;;;;;;;;;5037471;28;20411;-75
2023/06/25 08:53:50;;;;;;;11.67;9.93;;;;;;;;;;5036636;28;20044;-74
2023/06/25 08:56:16;;;;;;;11.98;9.52;;;;;;;;;;5035342;28;20045;-75
2023/06/25 08:58:43;;;;;;;11.93;10.70;;;;;;;;;;5039555;28;20075;-74
2023/06/25 09:01:10;;;;;;;11.18;9.98;;;;;;;;;;5035925;28;20048;-74
2023/06/25 09:03:36;;;;;;;9.13;8.18;;;;;;;;;;5035718;28;20049;-74
2023/06/25 09:06:04;;;;;;;10.25;7.80;;;;;;;;;;5035809;28;20102;-74
2023/06/25 09:08:30;;;;;;;10.23;8.13;;;;;;;;;;5034235;28;20057;-74
2023/06/25 09:10:57;;;;;;;10.30;8.35;;;;;;;;;;5036134;28;20511;-75
2023/06/25 09:13:24;;;;;;;9.20;6.63;;;;;;;;;;5034323;28;20120;-74
2023/06/25 09:15:50;;;;;;;8.43;6.72;;;;;;;;;;5037129;28;20375;-75
2023/06/25 09:18:20;;;;;;;10.18;7.22;;;;;;;;;;5036256;28;20041;-74
2023/06/25 09:20:47;;;;;;;10.20;8.03;;;;;;;;;;5000979;28;20050;-75
2023/06/25 09:23:18;;;;;;;9.93;6.28;;;;;;;;;;5038864;28;20662;-75
2023/06/25 09:25:45;;;;;;;9.10;6.07;;;;;;;;;;5035679;28;20053;-74
2023/06/25 09:28:11;;;;;;;10.85;6.82;;;;;;;;;;5037986;28;20081;-75
2023/06/25 09:30:39;;;;;;;8.50;6.65;;;;;;;;;;5038254;28;20050;-74
2023/06/25 09:33:05;;;;;;;9.05;5.78;;;;;;;;;;5035269;28;20046;-74
2023/06/25 09:35:31;;;;;;;7.97;6.13;;;;;;;;;;5033786;28;20128;-75
2023/06/25 09:37:59;;;;;;;8.23;5.15;;;;;;;;;;5035054;28;20424;-75
2023/06/25 09:40:25;;;;;;;7.72;5.45;;;;;;;;;;5036811;28;20507;-74
2023/06/25 09:42:55;;;;;;;7.63;5.28;;;;;;;;;;5030054;28;20095;-74
2023/06/25 09:45:22;;;;;;;8.20;4.63;;;;;;;;;;5036305;28;20049;-75
2023/06/25 09:47:50;;;;;;;6.88;4.72;;;;;;;;;;5032062;28;20033;-75
2023/06/25 09:50:27;;;;;;;7.07;5.20;;;;;;;;;;5028419;28;20049;-75
2023/06/25 09:52:53;;;;;;;16.95;5.25;;;;;;;;;;5041399;28;20049;-75
2023/06/25 09:55:21;;;;;;;7.53;5.10;;;;;;;;;;5050368;28;20065;-76
2023/06/25 09:57:48;;;;;;;6.55;4.47;;;;;;;;;;5036899;28;20044;-75
2023/06/25 10:00:16;;;;;;;8.40;5.20;;;;;;;;;;5038664;28;20072;-75
2023/06/25 10:02:42;;;;;;;7.38;4.85;;;;;;;;;;5037494;28;20068;-75
2023/06/25 10:05:09;;;;;;;7.60;5.00;;;;;;;;;;5037783;28;20088;-75
2023/06/25 10:07:35;;;;;;;8.98;4.82;;;;;;;;;;5037205;28;20124;-75
2023/06/25 10:10:01;;;;;;;9.52;5.72;;;;;;;;;;5038261;28;20492;-75
2023/06/25 10:12:32;;;;;;;7.72;4.80;;;;;;;;;;5034801;28;20116;-74
2023/06/25 10:15:00;;;;;;;8.25;4.70;;;;;;;;;;5035747;28;20501;-75
2023/06/25 10:17:26;;;;;;;9.30;5.32;;;;;;;;;;5037001;28;20049;-75
2023/06/25 10:19:53;;;;;;;7.32;4.95;;;;;;;;;;5035452;28;20048;-74
2023/06/25 10:22:23;;;;;;;7.88;5.07;;;;;;;;;;5035792;28;20072;-75
2023/06/25 10:24:50;;;;;;;8.32;5.65;;;;;;;;;;5037791;28;20057;-74
2023/06/25 10:27:28;;;;;;;13.27;5.80;;;;;;;;;;5037133;28;20068;-76
2023/06/25 10:29:56;;;;;;;8.95;5.47;;;;;;;;;;5034182;28;20046;-74
2023/06/25 10:32:23;;;;;;;8.77;5.70;;;;;;;;;;5033476;28;20053;-74
2023/06/25 10:34:56;;;;;;;7.72;5.68;;;;;;;;;;5033953;28;20033;-74
2023/06/25 10:37:23;;;;;;;9.27;5.57;;;;;;;;;;5038083;28;20111;-75
2023/06/25 10:39:49;;;;;;;8.50;5.68;;;;;;;;;;5050915;28;20077;-75
2023/06/25 10:42:15;;;;;;;8.98;5.40;;;;;;;;;;5035757;28;20104;-75
2023/06/25 10:44:41;;;;;;;8.23;4.85;;;;;;;;;;5039630;28;20084;-76
2023/06/25 10:47:09;;;;;;;8.85;5.32;;;;;;;;;;5037339;28;20054;-74
2023/06/25 10:49:35;;;;;;;7.97;4.90;;;;;;;;;;5037794;28;20060;-75
2023/06/25 10:52:02;;;;;;;7.93;4.88;;;;;;;;;;5037033;28;20041;-75
2023/06/25 10:54:28;;;;;;;6.82;4.40;;;;;;;;;;5041310;28;20045;-74
2023/06/25 10:56:56;;;;;;;7.15;4.38;;;;;;;;;;5022530;28;20116;-76
2023/06/25 10:59:22;;;;;;;8.45;5.18;;;;;;;;;;5037547;28;20041;-75
2023/06/25 11:01:49;;;;;;;7.20;4.85;;;;;;;;;;5037986;28;20137;-75
2023/06/25 11:04:15;;;;;;;6.70;4.70;;;;;;;;;;5035562;28;20168;-75
2023/06/25 11:06:41;;;;;;;7.15;4.47;;;;;;;;;;5037233;28;20072;-74
2023/06/25 11:09:07;;;;;;;6.72;4.35;;;;;;;;;;5026607;28;20124;-74
2023/06/25 11:11:33;;;;;;;8.48;4.53;;;;;;;;;;5040746;28;20037;-75
2023/06/25 11:14:00;;;;;;;6.65;4.30;;;;;;;;;;5059212;28;20505;-74
2023/06/25 11:16:26;;;;;;;6.93;4.60;;;;;;;;;;5044305;28;20064;-74
2023/06/25 11:18:53;;;;;;;7.38;4.82;;;;;;;;;;5040569;28;20131;-74
2023/06/25 11:21:19;;;;;;;7.70;5.00;;;;;;;;;;5037490;28;20499;-75
2023/06/25 11:23:45;;;;;;;6.85;4.97;;;;;;;;;;5036501;28;20052;-75
2023/06/25 11:26:14;;;;;;;6.70;4.35;;;;;;;;;;5020642;28;20050;-75
2023/06/25 11:28:40;;;;;;;8.45;4.93;;;;;;;;;;5031119;28;20045;-74
2023/06/25 11:31:07;;;;;;;6.82;4.85;;;;;;;;;;5039608;28;20129;-75
2023/06/25 11:33:33;;;;;;;7.13;5.00;;;;;;;;;;5037809;28;20041;-75
2023/06/25 11:36:09;;;;;;;6.55;4.50;;;;;;;;;;5040631;28;20097;-75
2023/06/25 11:38:36;;;;;;;6.35;4.40;;;;;;;;;;5039085;28;20053;-75
2023/06/25 11:41:02;;;;;;;7.15;4.65;;;;;;;;;;5039982;28;20096;-74
2023/06/25 11:43:28;;;;;;;7.32;4.63;;;;;;;;;;5038860;28;20038;-75
2023/06/25 11:46:01;;;;;;;6.15;4.30;;;;;;;;;;5041432;28;20041;-76
2023/06/25 11:48:28;;;;;;;6.63;4.45;;;;;;;;;;5038432;28;20054;-75
2023/06/25 11:50:54;;;;;;;7.95;4.85;;;;;;;;;;5037473;28;20046;-76
2023/06/25 11:53:20;;;;;;;7.32;5.10;;;;;;;;;;5038797;28;20057;-75
2023/06/25 11:55:46;;;;;;;7.10;5.10;;;;;;;;;;5039411;28;20056;-75
2023/06/25 11:58:13;;;;;;;7.82;4.97;;;;;;;;;;5040815;28;20049;-75
2023/06/25 12:00:39;;;;;;;7.70;5.18;;;;;;;;;;5046096;28;20606;-75
2023/06/25 12:03:05;;;;;;;7.68;4.90;;;;;;;;;;5043776;28;20067;-76
2023/06/25 12:05:31;;;;;;;10.00;4.95;;;;;;;;;;5035773;28;20053;-75
2023/06/25 12:07:57;;;;;;;7.43;4.93;;;;;;;;;;5038528;28;20099;-75
2023/06/25 12:10:23;;;;;;;7.47;4.45;;;;;;;;;;5044814;28;20099;-75
2023/06/25 12:12:52;;;;;;;7.30;4.50;;;;;;;;;;5042746;28;20077;-75
2023/06/25 12:15:18;;;;;;;6.95;4.65;;;;;;;;;;5040204;28;20061;-75
2023/06/25 12:17:44;;;;;;;6.95;4.45;;;;;;;;;;5039842;28;20393;-74
2023/06/25 12:20:11;;;;;;;7.22;4.85;;;;;;;;;;5038729;28;20129;-75
2023/06/25 12:22:37;;;;;;;6.75;4.50;;;;;;;;;;5038791;28;20099;-75
2023/06/25 12:25:04;;;;;;;7.18;4.53;;;;;;;;;;5040505;28;20056;-75
2023/06/25 12:27:30;;;;;;;6.95;4.75;;;;;;;;;;5039475;28;20064;-75
2023/06/25 12:29:56;;;;;;;6.47;4.10;;;;;;;;;;5022196;28;20041;-76
2023/06/25 12:32:22;;;;;;;7.07;4.28;;;;;;;;;;5029240;28;20049;-75
2023/06/25 12:34:48;;;;;;;6.57;4.03;;;;;;;;;;5035625;28;20038;-75
2023/06/25 12:37:15;;;;;;;6.82;4.40;;;;;;;;;;5022518;28;20045;-75
2023/06/25 12:39:41;;;;;;;7.70;4.22;;;;;;;;;;5039481;28;20059;-76
2023/06/25 12:42:07;;;;;;;7.07;4.20;;;;;;;;;;5037463;28;20480;-75
2023/06/25 12:44:33;;;;;;;8.32;4.68;;;;;;;;;;5039609;28;20454;-75
2023/06/25 12:46:59;;;;;;;7.22;4.70;;;;;;;;;;5039014;28;20037;-74
2023/06/25 12:49:25;;;;;;;7.43;5.20;;;;;;;;;;5035209;28;20038;-74
2023/06/25 12:51:51;;;;;;;6.80;4.80;;;;;;;;;;5036468;28;20407;-75
2023/06/25 12:54:18;;;;;;;9.85;4.90;;;;;;;;;;5030274;28;20046;-75
2023/06/25 12:56:45;;;;;;;6.70;4.93;;;;;;;;;;5019356;28;20160;-75
2023/06/25 12:59:11;;;;;;;8.23;4.68;;;;;;;;;;5036468;28;20045;-74
2023/06/25 13:01:37;;;;;;;8.45;4.78;;;;;;;;;;5035573;28;20069;-76
2023/06/25 13:04:03;;;;;;;7.90;4.97;;;;;;;;;;5036792;28;20037;-76
2023/06/25 13:06:29;;;;;;;6.32;4.60;;;;;;;;;;5035538;28;20086;-75
2023/06/25 13:08:55;;;;;;;6.78;5.18;;;;;;;;;;5035483;28;20049;-75
2023/06/25 13:11:22;;;;;;;6.22;4.68;;;;;;;;;;5036791;28;20414;-75
2023/06/25 13:13:48;;;;;;;7.45;4.78;;;;;;;;;;5037727;28;20500;-75
2023/06/25 13:16:14;;;;;;;7.88;4.75;;;;;;;;;;5038437;28;20124;-75
2023/06/25 13:18:41;;;;;;;6.70;4.85;;;;;;;;;;5036772;28;20079;-75
2023/06/25 13:21:08;;;;;;;7.65;5.30;;;;;;;;;;5036634;28;20058;-75
2023/06/25 13:23:34;;;;;;;7.32;4.60;;;;;;;;;;5037925;28;20042;-75
2023/06/25 13:26:00;;;;;;;7.35;4.95;;;;;;;;;;5038315;28;20172;-74
2023/06/25 13:28:26;;;;;;;6.78;4.53;;;;;;;;;;5035934;28;20034;-75
2023/06/25 13:30:53;;;;;;;6.85;5.10;;;;;;;;;;5030531;28;20096;-75
2023/06/25 13:33:19;;;;;;;6.50;4.38;;;;;;;;;;5017497;28;20045;-77
2023/06/25 13:35:45;;;;;;;6.00;4.63;;;;;;;;;;5037931;28;20095;-75
2023/06/25 13:38:11;;;;;;;8.95;4.88;;;;;;;;;;5034242;28;20038;-75
2023/06/25 13:40:37;;;;;;;7.68;5.25;;;;;;;;;;5034946;28;20041;-75
2023/06/25 13:43:04;;;;;;;6.28;4.80;;;;;;;;;;5029891;28;20041;-74
2023/06/25 13:45:30;;;;;;;7.20;5.40;;;;;;;;;;5030905;28;20041;-74
2023/06/25 13:47:56;;;;;;;7.22;5.07;;;;;;;;;;5028484;28;20073;-74
2023/06/25 13:50:24;;;;;;;7.80;5.28;;;;;;;;;;5031124;28;20167;-76
2023/06/25 13:52:50;;;;;;;7.65;5.47;;;;;;;;;;5030737;28;20148;-75
2023/06/25 13:55:17;;;;;;;9.80;5.13;;;;;;;;;;5038929;28;20057;-75
2023/06/25 13:57:43;;;;;;;7.22;4.95;;;;;;;;;;5058781;28;20047;-75
2023/06/25 14:00:09;;;;;;;7.00;5.50;;;;;;;;;;5038369;28;20045;-76
2023/06/25 14:02:35;;;;;;;11.35;5.50;;;;;;;;;;5046318;28;20048;-76
2023/06/25 14:05:01;;;;;;;8.10;4.65;;;;;;;;;;5035953;28;20120;-75
2023/06/25 14:07:27;;;;;;;7.30;5.07;;;;;;;;;;5035449;28;20053;-74
2023/06/25 14:09:53;;;;;;;8.18;5.30;;;;;;;;;;5034364;28;20172;-76
2023/06/25 14:12:19;;;;;;;9.15;5.68;;;;;;;;;;5038689;28;20041;-76
2023/06/25 14:14:46;;;;;;;7.72;5.70;;;;;;;;;;5041833;28;20042;-76
2023/06/25 14:17:12;;;;;;;8.20;5.20;;;;;;;;;;5040182;28;20068;-75
2023/06/25 14:19:38;;;;;;;8.23;4.90;;;;;;;;;;5038999;28;20049;-75
2023/06/25 14:22:04;;;;;;;9.23;5.10;;;;;;;;;;5039166;28;20091;-75